createdAt,value
2024-02-15T00:00:44.508Z,5.80
2024-02-15T00:03:14.534Z,5.70
2024-02-15T00:05:41.372Z,6.20
2024-02-15T00:08:07.865Z,5.88
2024-02-15T00:10:35.569Z,6.00
2024-02-15T00:13:02.140Z,6.00
2024-02-15T00:15:28.659Z,6.28
2024-02-15T00:17:55.303Z,5.53
2024-02-15T00:20:21.946Z,5.40
2024-02-15T00:22:49.217Z,5.55
2024-02-15T00:25:15.797Z,5.15
2024-02-15T00:27:42.393Z,5.40
2024-02-15T00:30:10.137Z,6.35
2024-02-15T00:32:38.087Z,4.93
2024-02-15T00:35:10.869Z,4.97
2024-02-15T00:37:38.271Z,4.75
2024-02-15T00:40:05.338Z,5.05
2024-02-15T00:42:34.691Z,5.30
2024-02-15T00:45:01.333Z,4.95
2024-02-15T00:47:29.798Z,4.57
2024-02-15T00:49:56.575Z,4.70
2024-02-15T00:52:24.676Z,4.70
2024-02-15T00:54:51.210Z,4.70
2024-02-15T00:57:17.735Z,4.40
2024-02-15T00:59:45.278Z,4.10
2024-02-15T01:02:11.978Z,4.15
2024-02-15T01:04:38.509Z,4.95
2024-02-15T01:07:05.165Z,4.40
2024-02-15T01:09:31.751Z,4.22
2024-02-15T01:11:58.348Z,4.68
2024-02-15T01:14:24.968Z,4.72
2024-02-15T01:16:51.481Z,4.45
2024-02-15T01:19:18.053Z,5.00
2024-02-15T01:21:45.205Z,4.65
2024-02-15T01:24:11.799Z,4.70
2024-02-15T01:26:38.432Z,4.45
2024-02-15T01:29:05.047Z,4.63
2024-02-15T01:31:31.676Z,4.97
2024-02-15T01:33:58.727Z,4.30
2024-02-15T01:36:25.947Z,4.32
2024-02-15T01:38:52.538Z,4.68
2024-02-15T01:41:19.137Z,5.10
2024-02-15T01:43:49.200Z,4.78
2024-02-15T01:46:16.750Z,4.50
2024-02-15T01:48:44.580Z,4.47
2024-02-15T01:51:14.145Z,4.70
2024-02-15T01:53:43.136Z,5.35
2024-02-15T01:56:13.088Z,4.22
2024-02-15T01:58:42.222Z,4.97
2024-02-15T02:01:08.813Z,4.90
2024-02-15T02:03:36.395Z,5.07
2024-02-15T02:06:04.215Z,5.32
2024-02-15T02:08:30.908Z,4.70
2024-02-15T02:10:58.210Z,5.13
2024-02-15T02:13:24.944Z,5.43
2024-02-15T02:15:54.214Z,5.20
2024-02-15T02:18:21.139Z,4.68
2024-02-15T02:20:47.835Z,5.25
2024-02-15T02:23:21.715Z,5.10
2024-02-15T02:28:17.941Z,4.05
2024-02-15T02:30:46.867Z,4.82
2024-02-15T02:33:20.882Z,4.70
2024-02-15T02:35:49.516Z,5.05
2024-02-15T02:38:16.608Z,4.35
2024-02-15T02:40:43.701Z,4.75
2024-02-15T02:43:10.978Z,4.50
2024-02-15T02:45:37.771Z,4.90
2024-02-15T02:48:04.884Z,5.40
2024-02-15T02:50:31.557Z,4.82
2024-02-15T02:52:58.123Z,5.30
2024-02-15T02:55:24.700Z,5.60
2024-02-15T02:57:51.279Z,4.93
2024-02-15T03:00:18.687Z,5.13
2024-02-15T03:02:47.435Z,4.68
2024-02-15T03:05:17.261Z,5.35
2024-02-15T03:07:43.925Z,5.35
2024-02-15T03:10:11.529Z,5.18
2024-02-15T03:12:41.115Z,4.93
2024-02-15T03:15:12.446Z,4.97
2024-02-15T03:17:43.135Z,5.35
2024-02-15T03:20:21.709Z,5.85
2024-02-15T03:22:55.904Z,5.28
2024-02-15T03:25:25.282Z,5.78
2024-02-15T03:28:04.521Z,5.38
2024-02-15T03:30:32.788Z,5.25
2024-02-15T03:32:59.843Z,5.57
2024-02-15T03:35:30.086Z,5.45
2024-02-15T03:37:57.585Z,5.38
2024-02-15T03:40:27.635Z,6.05
2024-02-15T03:42:55.113Z,5.68
2024-02-15T03:45:22.210Z,5.30
2024-02-15T03:47:51.132Z,6.20
2024-02-15T03:50:20.018Z,5.13
2024-02-15T03:52:47.201Z,5.53
2024-02-15T03:55:14.227Z,5.22
2024-02-15T03:57:48.210Z,5.07
2024-02-15T04:00:22.613Z,4.78
2024-02-15T04:02:50.395Z,5.28
2024-02-15T04:05:19.364Z,5.10
2024-02-15T04:07:46.194Z,5.15
2024-02-15T04:10:13.612Z,5.70
2024-02-15T04:12:43.205Z,5.40
2024-02-15T04:15:14.189Z,5.35
2024-02-15T04:17:42.471Z,4.90
2024-02-15T04:20:10.494Z,5.65
2024-02-15T04:25:07.373Z,4.93
2024-02-15T04:30:00.884Z,4.60
2024-02-15T04:32:27.397Z,4.75
2024-02-15T04:34:53.974Z,5.13
2024-02-15T04:37:21.710Z,4.38
2024-02-15T04:39:48.906Z,4.05
2024-02-15T04:42:16.887Z,4.57
2024-02-15T04:44:43.497Z,4.28
2024-02-15T04:47:10.037Z,4.38
2024-02-15T04:49:39.304Z,4.50
2024-02-15T04:52:07.776Z,4.22
2024-02-15T04:54:34.553Z,3.78
2024-02-15T04:57:02.302Z,3.92
2024-02-15T05:02:00.147Z,3.75
2024-02-15T05:04:26.922Z,3.88
2024-02-15T05:06:54.547Z,4.20
2024-02-15T05:11:48.481Z,4.05
2024-02-15T05:14:20.388Z,4.18
2024-02-15T05:16:49.041Z,4.20
2024-02-15T05:19:18.841Z,4.75
2024-02-15T05:21:47.102Z,4.03
2024-02-15T05:24:17.807Z,5.15
2024-02-15T05:26:49.928Z,4.45
2024-02-15T05:29:16.790Z,4.85
2024-02-15T05:31:43.419Z,5.55
2024-02-15T05:34:13.486Z,4.50
2024-02-15T05:36:40.745Z,4.28
2024-02-15T05:39:08.613Z,4.50
2024-02-15T05:41:35.706Z,4.78
2024-02-15T05:44:05.771Z,4.22
2024-02-15T05:46:32.457Z,4.75
2024-02-15T05:49:00.430Z,5.07
2024-02-15T05:51:27.155Z,5.30
2024-02-15T05:53:59.484Z,4.70
2024-02-15T05:56:27.105Z,4.43
2024-02-15T05:58:53.849Z,4.45
2024-02-15T06:01:20.410Z,4.20
2024-02-15T06:03:49.469Z,4.60
2024-02-15T06:06:16.275Z,4.22
2024-02-15T06:08:43.039Z,4.32
2024-02-15T06:11:11.677Z,4.45
2024-02-15T06:13:38.369Z,4.15
2024-02-15T06:16:10.312Z,4.43
2024-02-15T06:18:37.199Z,5.72
2024-02-15T06:21:04.562Z,4.28
2024-02-15T06:23:32.317Z,4.55
2024-02-15T06:25:59.468Z,4.68
2024-02-15T06:28:45.024Z,5.28
2024-02-15T06:31:31.612Z,4.95
2024-02-15T06:34:16.948Z,4.75
2024-02-15T06:48:35.575Z,4.70
2024-02-15T06:51:02.436Z,4.75
2024-02-15T06:53:29.086Z,5.15
2024-02-15T06:55:55.671Z,4.60
2024-02-15T06:58:22.310Z,5.97
2024-02-15T07:00:51.398Z,6.28
2024-02-15T07:03:18.192Z,7.32
2024-02-15T07:05:45.362Z,7.70
2024-02-15T07:08:13.899Z,8.70
2024-02-15T07:10:40.956Z,10.40
2024-02-15T07:13:07.769Z,13.32
2024-02-15T07:15:39.980Z,18.08
2024-02-15T07:18:07.722Z,11.75
2024-02-15T07:23:28.778Z,12.20
2024-02-15T07:38:37.694Z,13.00
2024-02-15T07:41:04.604Z,12.88
2024-02-15T07:43:31.234Z,13.25
2024-02-15T07:45:57.834Z,13.85
2024-02-15T07:48:25.104Z,12.55
2024-02-15T07:50:51.715Z,12.60
2024-02-15T07:53:18.232Z,12.98
2024-02-15T07:55:45.244Z,11.73
2024-02-15T07:58:12.143Z,12.98
2024-02-15T08:00:39.504Z,13.23
2024-02-15T08:03:06.270Z,13.27
2024-02-15T08:05:32.934Z,13.75
2024-02-15T08:47:16.047Z,15.30
2024-02-15T08:49:42.802Z,14.43
2024-02-15T08:52:09.569Z,14.63
2024-02-15T08:54:39.673Z,14.13
2024-02-15T08:57:07.618Z,13.85
2024-02-15T08:59:34.373Z,14.75
2024-02-15T09:02:01.655Z,13.95
2024-02-15T09:04:28.741Z,15.07
2024-02-15T09:09:45.832Z,14.23
2024-02-15T09:26:58.138Z,14.35
2024-02-15T09:29:25.595Z,15.48
2024-02-15T09:31:53.969Z,14.73
2024-02-15T09:34:20.753Z,14.57
2024-02-15T09:36:47.338Z,14.68
2024-02-15T09:39:15.273Z,15.00
2024-02-15T09:41:47.605Z,14.95
2024-02-15T09:44:15.967Z,14.32
2024-02-15T09:46:48.029Z,14.02
2024-02-15T09:49:15.700Z,14.50
2024-02-15T09:54:11.967Z,14.23
2024-02-15T09:56:42.787Z,14.82
2024-02-15T09:59:09.465Z,16.38
2024-02-15T10:01:38.250Z,14.68
2024-02-15T10:04:08.034Z,15.32
2024-02-15T10:06:34.938Z,15.65
2024-02-15T10:09:28.833Z,15.82
2024-02-15T10:12:01.676Z,14.70
2024-02-15T10:14:31.949Z,15.68
2024-02-15T10:17:07.260Z,16.35
2024-02-15T10:19:36.203Z,15.45
2024-02-15T10:22:10.228Z,15.73
2024-02-15T10:24:38.156Z,14.88
2024-02-15T10:27:07.121Z,15.02
2024-02-15T10:29:35.298Z,16.05
2024-02-15T10:32:03.478Z,15.35
2024-02-15T10:34:31.880Z,15.68
2024-02-15T10:37:15.365Z,15.85
2024-02-15T10:39:42.172Z,14.85
2024-02-15T10:42:12.351Z,14.30
2024-02-15T10:44:42.214Z,15.18
2024-02-15T10:47:10.257Z,14.50
2024-02-15T10:49:37.464Z,14.27
2024-02-15T10:52:05.736Z,13.30
2024-02-15T10:54:38.307Z,13.45
2024-02-15T10:57:06.737Z,13.82
2024-02-15T10:59:39.580Z,14.73
2024-02-15T11:02:24.997Z,15.13
2024-02-15T11:04:57.759Z,14.82
2024-02-15T11:07:30.864Z,15.40
2024-02-15T11:10:00.302Z,14.52
2024-02-15T11:12:27.864Z,15.43
2024-02-15T11:14:55.466Z,16.05
2024-02-15T11:20:10.965Z,14.90
2024-02-15T11:22:38.348Z,14.15
2024-02-15T11:25:10.054Z,13.88
2024-02-15T11:27:48.916Z,13.18
2024-02-15T11:30:33.142Z,12.98
2024-02-15T11:33:00.860Z,13.07
2024-02-15T11:35:30.826Z,12.52
2024-02-15T11:38:05.876Z,12.77
2024-02-15T11:41:01.679Z,12.90
2024-02-15T11:43:46.122Z,11.60
2024-02-15T11:46:17.550Z,12.07
2024-02-15T11:48:44.600Z,12.05
2024-02-15T11:51:12.925Z,12.25
2024-02-15T11:53:40.856Z,11.75
2024-02-15T11:56:10.198Z,12.75
2024-02-15T11:58:53.749Z,12.85
2024-02-15T12:01:39.132Z,11.57
2024-02-15T12:04:24.455Z,11.65
2024-02-15T12:07:16.895Z,11.80
2024-02-15T12:10:05.260Z,12.02
2024-02-15T12:12:51.967Z,12.40
2024-02-15T12:15:37.273Z,12.85
2024-02-15T12:18:37.797Z,11.23
2024-02-15T12:21:06.410Z,12.00
2024-02-15T12:23:34.937Z,10.68
2024-02-15T12:26:04.780Z,10.73
2024-02-15T12:28:32.409Z,11.52
2024-02-15T12:33:28.777Z,11.18
2024-02-15T12:36:08.946Z,10.57
2024-02-15T12:38:38.603Z,10.23
2024-02-15T12:41:21.381Z,10.45
2024-02-15T12:43:53.386Z,9.85
2024-02-15T12:46:20.841Z,9.73
2024-02-15T12:48:47.769Z,8.48
2024-02-15T12:51:17.827Z,8.65
2024-02-15T12:53:44.862Z,10.05
2024-02-15T12:56:11.638Z,9.70
2024-02-15T12:58:40.275Z,9.60
2024-02-15T13:01:07.323Z,9.80
2024-02-15T13:03:34.428Z,9.15
2024-02-15T13:06:01.255Z,9.18
2024-02-15T13:08:27.848Z,9.75
2024-02-15T13:10:54.460Z,8.65
2024-02-15T13:13:22.401Z,9.10
2024-02-15T13:15:52.922Z,9.65
2024-02-15T13:18:20.123Z,8.63
2024-02-15T13:20:50.871Z,8.30
2024-02-15T13:23:23.394Z,9.23
2024-02-15T13:25:51.347Z,8.95
2024-02-15T13:28:18.181Z,9.52
2024-02-15T13:30:46.711Z,10.48
2024-02-15T13:33:15.972Z,10.52
2024-02-15T13:35:43.198Z,9.73
2024-02-15T13:38:16.459Z,10.50
2024-02-15T13:40:45.498Z,10.68
2024-02-15T13:43:12.348Z,11.02
2024-02-15T13:45:42.740Z,11.05
2024-02-15T13:48:11.030Z,10.40
2024-02-15T13:50:38.646Z,10.35
2024-02-15T13:55:32.590Z,10.38
2024-02-15T13:57:59.557Z,9.68
2024-02-15T14:00:38.493Z,9.63
2024-02-15T14:03:07.874Z,10.15
2024-02-15T14:05:34.974Z,9.70
2024-02-15T14:08:15.084Z,9.13
2024-02-15T14:10:42.018Z,10.32
2024-02-15T14:13:12.702Z,9.38
2024-02-15T14:15:40.889Z,8.35
2024-02-15T14:18:14.841Z,9.65
2024-02-15T14:20:45.071Z,11.05
2024-02-15T14:23:15.550Z,10.52
2024-02-15T14:25:43.841Z,9.80
2024-02-15T14:28:10.559Z,9.27
2024-02-15T14:30:56.259Z,10.27
2024-02-15T14:33:23.998Z,10.90
2024-02-15T14:35:54.839Z,11.07
2024-02-15T14:38:22.081Z,11.77
2024-02-15T14:40:54.527Z,12.57
2024-02-15T14:43:22.903Z,10.25
2024-02-15T14:45:50.017Z,10.30
2024-02-15T14:48:19.818Z,9.15
2024-02-15T14:50:47.584Z,10.27
2024-02-15T14:53:16.934Z,10.23
2024-02-15T14:55:47.378Z,10.45
2024-02-15T14:58:14.893Z,10.15
2024-02-15T15:00:46.129Z,11.23
2024-02-15T15:03:14.733Z,11.55
2024-02-15T15:06:00.994Z,11.23
2024-02-15T15:08:46.214Z,13.70
2024-02-15T15:11:31.250Z,13.98
2024-02-15T15:13:57.928Z,11.40
2024-02-15T15:16:26.490Z,10.88
2024-02-15T15:18:56.289Z,10.68
2024-02-15T15:21:24.564Z,10.57
2024-02-15T15:23:51.584Z,11.40
2024-02-15T15:26:22.476Z,11.60
2024-02-15T15:28:49.755Z,11.77
2024-02-15T15:31:16.836Z,11.57
2024-02-15T15:33:44.380Z,12.10
2024-02-15T15:36:12.298Z,11.35
2024-02-15T15:38:39.269Z,11.85
2024-02-15T15:41:08.372Z,12.02
2024-02-15T15:43:34.950Z,12.10
2024-02-15T15:46:01.486Z,11.95
2024-02-15T15:48:28.171Z,12.45
2024-02-15T15:50:55.132Z,11.07
2024-02-15T15:53:22.159Z,12.68
2024-02-15T15:55:48.872Z,12.35
2024-02-15T15:58:16.234Z,12.50
2024-02-15T16:00:42.837Z,12.77
2024-02-15T16:03:10.095Z,11.65
2024-02-15T16:05:37.428Z,12.27
2024-02-15T16:08:04.470Z,13.95
2024-02-15T16:10:31.305Z,12.77
2024-02-15T16:12:58.618Z,13.27
2024-02-15T16:15:25.527Z,13.00
2024-02-15T16:17:52.424Z,12.60
2024-02-15T16:20:19.351Z,12.85
2024-02-15T16:22:46.644Z,12.98
2024-02-15T16:25:13.433Z,13.18
2024-02-15T16:27:41.507Z,14.10
2024-02-15T16:30:10.522Z,14.50
2024-02-15T16:32:41.217Z,14.73
2024-02-15T16:35:15.966Z,14.52
2024-02-15T16:37:43.947Z,15.50
2024-02-15T16:40:13.886Z,14.85
2024-02-15T16:42:46.020Z,13.88
2024-02-15T16:45:16.119Z,13.23
2024-02-15T16:47:50.980Z,14.60
2024-02-15T16:50:18.236Z,13.40
2024-02-15T16:52:44.987Z,14.55
2024-02-15T16:55:11.756Z,14.98
2024-02-15T16:57:42.205Z,15.00
2024-02-15T17:00:09.912Z,15.05
2024-02-15T17:05:08.844Z,16.75
2024-02-15T17:07:36.069Z,17.95
2024-02-15T17:10:02.720Z,17.55
2024-02-15T17:12:29.855Z,18.83
2024-02-15T17:14:56.796Z,16.90
2024-02-15T17:17:23.703Z,19.02
2024-02-15T17:19:52.547Z,30.75
2024-02-15T17:22:19.784Z,45.75
2024-02-15T17:24:46.632Z,38.22
2024-02-15T17:27:13.417Z,25.38
2024-02-15T17:29:41.222Z,20.00
2024-02-15T17:32:08.117Z,17.13
2024-02-15T17:34:35.062Z,17.05
2024-02-15T17:37:01.979Z,16.80
2024-02-15T17:39:28.611Z,17.08
2024-02-15T17:41:55.252Z,17.67
2024-02-15T17:44:21.949Z,17.55
2024-02-15T17:46:48.574Z,18.52
2024-02-15T17:49:15.340Z,19.17
2024-02-15T17:51:44.625Z,19.55
2024-02-15T17:54:12.121Z,17.20
2024-02-15T17:56:41.494Z,17.73
2024-02-15T17:59:12.370Z,16.92
2024-02-15T18:01:40.550Z,17.25
2024-02-15T18:04:07.686Z,16.83
2024-02-15T18:06:34.732Z,17.60
2024-02-15T18:09:01.774Z,17.63
2024-02-15T18:11:28.713Z,17.52
2024-02-15T18:13:56.445Z,18.45
2024-02-15T18:18:50.573Z,16.95
2024-02-15T18:21:17.857Z,17.83
2024-02-15T18:23:46.217Z,19.60
2024-02-15T18:26:13.195Z,18.65
2024-02-15T18:28:40.093Z,18.50
2024-02-15T18:31:09.931Z,18.80
2024-02-15T18:33:40.941Z,19.58
2024-02-15T18:36:10.017Z,19.52
2024-02-15T18:38:37.508Z,18.52
2024-02-15T18:41:07.088Z,18.45
2024-02-15T18:43:35.555Z,17.98
2024-02-15T18:46:03.014Z,18.73
2024-02-15T18:48:33.020Z,20.75
2024-02-15T18:50:59.938Z,18.85
2024-02-15T18:53:33.701Z,17.23
2024-02-15T18:56:00.319Z,17.92
2024-02-15T18:58:28.987Z,18.40
2024-02-15T19:00:58.978Z,18.92
2024-02-15T19:03:26.499Z,18.48
2024-02-15T19:05:53.516Z,19.00
2024-02-15T19:08:20.638Z,19.05
2024-02-15T19:10:47.720Z,18.05
2024-02-15T19:13:15.004Z,18.35
2024-02-15T19:15:41.809Z,19.00
2024-02-15T19:18:09.916Z,18.00
2024-02-15T19:20:36.838Z,18.40
2024-02-15T19:23:07.105Z,18.58
2024-02-15T19:25:45.677Z,19.05
2024-02-15T19:28:13.777Z,19.63
2024-02-15T19:30:43.160Z,20.70
2024-02-15T19:33:15.381Z,20.80
2024-02-15T19:35:47.331Z,20.23
2024-02-15T19:38:15.100Z,20.30
2024-02-15T19:43:10.120Z,18.17
2024-02-15T19:45:42.686Z,18.27
2024-02-15T19:48:13.976Z,18.80
2024-02-15T19:50:40.863Z,17.25
2024-02-15T19:53:09.098Z,17.77
2024-02-15T19:55:35.764Z,17.95
2024-02-15T19:58:02.402Z,17.52
2024-02-15T20:00:30.589Z,17.90
2024-02-15T20:02:57.605Z,18.42
2024-02-15T20:05:28.011Z,17.13
2024-02-15T20:07:55.093Z,18.27
2024-02-15T20:10:21.701Z,17.27
2024-02-15T20:12:48.241Z,18.05
2024-02-15T20:15:14.844Z,18.77
2024-02-15T20:17:41.521Z,18.48
2024-02-15T20:20:11.318Z,16.17
2024-02-15T20:22:40.432Z,18.10
2024-02-15T20:25:11.132Z,17.25
2024-02-15T20:27:38.566Z,21.65
2024-02-15T20:30:06.657Z,18.17
2024-02-15T20:32:33.351Z,16.63
2024-02-15T20:35:00.339Z,16.25
2024-02-15T20:37:27.112Z,16.83
2024-02-15T20:39:54.783Z,15.68
2024-02-15T20:44:48.149Z,14.63
2024-02-15T20:47:15.424Z,15.88
2024-02-15T20:49:42.119Z,16.80
2024-02-15T20:52:09.439Z,15.68
2024-02-15T20:54:36.126Z,16.98
2024-02-15T20:57:02.800Z,16.02
2024-02-15T20:59:29.498Z,14.95
2024-02-15T21:01:56.145Z,14.68
2024-02-15T21:04:23.046Z,15.65
2024-02-15T21:06:50.531Z,15.93
2024-02-15T21:09:17.598Z,16.40
2024-02-15T21:11:44.994Z,16.52
2024-02-15T21:14:14.440Z,15.90
2024-02-15T21:16:41.278Z,16.45
2024-02-15T21:19:10.788Z,15.20
2024-02-15T21:21:38.082Z,16.02
2024-02-15T21:24:06.353Z,15.43
2024-02-15T21:26:33.772Z,15.25
2024-02-15T21:29:00.577Z,15.15
2024-02-15T21:31:27.123Z,14.95
2024-02-15T21:33:55.435Z,15.25
2024-02-15T21:36:22.738Z,15.00
2024-02-15T21:38:51.576Z,15.32
2024-02-15T21:41:22.521Z,15.82
2024-02-15T21:43:52.144Z,15.07
2024-02-15T21:46:21.122Z,15.45
2024-02-15T21:48:49.149Z,15.05
2024-02-15T21:51:15.822Z,16.02
2024-02-15T21:53:42.319Z,16.90
2024-02-15T21:56:08.812Z,15.55
2024-02-15T21:58:35.322Z,14.90
2024-02-15T22:01:01.935Z,14.68
2024-02-15T22:03:28.726Z,14.80
2024-02-15T22:05:55.413Z,15.27
2024-02-15T22:08:22.056Z,14.85
2024-02-15T22:10:50.539Z,14.43
2024-02-15T22:13:19.089Z,15.20
2024-02-15T22:15:46.159Z,14.98
2024-02-15T22:18:13.908Z,14.80
2024-02-15T22:20:41.149Z,14.70
2024-02-15T22:23:07.729Z,14.75
2024-02-15T22:25:34.404Z,15.05
2024-02-15T22:28:00.942Z,15.05
2024-02-15T22:30:27.799Z,15.55
2024-02-15T22:32:56.915Z,15.20
2024-02-15T22:35:24.853Z,15.15
2024-02-15T22:40:24.311Z,14.15
2024-02-15T22:42:50.870Z,14.57
2024-02-15T22:45:18.529Z,15.18
2024-02-15T22:47:46.427Z,15.05
2024-02-15T22:50:13.516Z,14.52
2024-02-15T22:52:40.557Z,15.23
2024-02-15T22:55:13.160Z,14.75
2024-02-15T22:57:39.831Z,14.55
2024-02-15T23:00:07.640Z,15.30
2024-02-15T23:05:03.373Z,13.88
2024-02-15T23:07:30.230Z,15.55
2024-02-15T23:09:56.895Z,15.90
2024-02-15T23:12:23.714Z,15.30
2024-02-15T23:14:50.501Z,14.65
2024-02-15T23:17:17.071Z,15.35
2024-02-15T23:19:43.744Z,15.63
2024-02-15T23:22:11.341Z,15.32
2024-02-15T23:24:38.750Z,14.13
2024-02-15T23:27:06.761Z,14.93
2024-02-15T23:29:33.595Z,14.30
2024-02-15T23:32:00.313Z,14.23
2024-02-15T23:34:26.983Z,14.90
2024-02-15T23:37:11.889Z,13.70
2024-02-15T23:39:56.840Z,14.43
2024-02-15T23:42:23.588Z,13.88
2024-02-15T23:44:50.351Z,14.85
2024-02-15T23:47:16.960Z,14.02
2024-02-15T23:49:43.689Z,14.23
2024-02-15T23:52:10.331Z,13.82
2024-02-15T23:54:38.044Z,15.00
2024-02-15T23:59:34.596Z,14.25
